createdAt,value
2022-10-12T00:01:05.853Z,14.65
2022-10-12T00:03:33.208Z,14.52
2022-10-12T00:06:02.470Z,11.35
2022-10-12T00:08:29.563Z,13.27
2022-10-12T00:10:56.256Z,12.18
2022-10-12T00:13:22.900Z,16.75
2022-10-12T00:15:49.662Z,22.55
2022-10-12T00:18:16.465Z,26.50
2022-10-12T00:20:43.184Z,19.88
2022-10-12T00:23:09.863Z,17.15
2022-10-12T00:25:38.250Z,19.25
2022-10-12T00:28:05.314Z,22.25
2022-10-12T00:30:32.274Z,23.42
2022-10-12T00:32:58.944Z,23.38
2022-10-12T00:35:27.895Z,28.10
2022-10-12T00:37:55.458Z,24.73
2022-10-12T00:40:23.143Z,23.42
2022-10-12T00:42:49.818Z,24.30
2022-10-12T00:45:16.839Z,22.88
2022-10-12T00:47:56.073Z,22.13
2022-10-12T00:50:31.596Z,23.58
2022-10-12T00:53:11.976Z,18.38
2022-10-12T00:55:41.728Z,19.02
2022-10-12T00:58:08.600Z,15.30
2022-10-12T01:00:37.253Z,14.88
2022-10-12T01:03:04.677Z,12.18
2022-10-12T01:05:31.300Z,12.70
2022-10-12T01:07:59.821Z,11.35
2022-10-12T01:10:26.852Z,14.70
2022-10-12T01:12:53.486Z,13.57
2022-10-12T01:15:20.234Z,16.50
2022-10-12T01:18:14.953Z,12.13
2022-10-12T01:21:09.293Z,10.68
2022-10-12T01:24:12.911Z,13.95
2022-10-12T01:26:48.303Z,17.85
2022-10-12T01:29:32.253Z,14.18
2022-10-12T01:32:12.029Z,14.02
2022-10-12T01:34:53.368Z,16.75
2022-10-12T01:39:54.558Z,18.70
2022-10-12T01:42:25.775Z,13.90
2022-10-12T01:45:19.255Z,11.88
2022-10-12T01:47:48.694Z,11.63
2022-10-12T01:50:16.415Z,9.10
2022-10-12T01:52:45.923Z,9.20
2022-10-12T01:55:50.322Z,12.05
2022-10-12T01:58:19.797Z,10.07
2022-10-12T02:01:12.358Z,7.55
2022-10-12T02:04:03.993Z,11.52
2022-10-12T02:06:42.810Z,8.05
2022-10-12T02:09:15.165Z,9.68
2022-10-12T02:11:44.592Z,13.10
2022-10-12T02:14:16.120Z,9.50
2022-10-12T02:16:47.778Z,14.32
2022-10-12T02:19:17.541Z,13.82
2022-10-12T02:21:45.389Z,10.88
2022-10-12T02:24:12.887Z,17.40
2022-10-12T02:26:42.391Z,15.68
2022-10-12T02:29:13.604Z,14.30
2022-10-12T02:31:47.069Z,22.77
2022-10-12T02:34:44.432Z,17.95
2022-10-12T02:37:18.268Z,11.52
2022-10-12T02:39:51.549Z,17.73
2022-10-12T02:42:22.079Z,13.00
2022-10-12T02:44:49.165Z,16.50
2022-10-12T02:47:17.120Z,13.10
2022-10-12T02:49:44.778Z,10.52
2022-10-12T02:52:12.058Z,12.10
2022-10-12T02:54:40.336Z,12.13
2022-10-12T02:57:06.989Z,13.38
2022-10-12T02:59:33.801Z,9.77
2022-10-12T03:02:00.411Z,15.45
2022-10-12T03:04:27.117Z,12.10
2022-10-12T03:06:53.742Z,13.40
2022-10-12T03:09:20.472Z,10.45
2022-10-12T03:11:47.107Z,9.90
2022-10-12T03:14:17.806Z,8.48
2022-10-12T03:16:46.587Z,10.80
2022-10-12T03:19:13.400Z,8.90
2022-10-12T03:21:40.140Z,9.07
2022-10-12T03:24:06.936Z,18.48
2022-10-12T03:26:34.283Z,10.05
2022-10-12T03:29:00.930Z,12.15
2022-10-12T03:31:27.604Z,9.25
2022-10-12T03:33:54.284Z,11.43
2022-10-12T03:36:20.970Z,10.30
2022-10-12T03:38:48.141Z,10.88
2022-10-12T03:41:14.823Z,11.43
2022-10-12T03:43:41.439Z,8.68
2022-10-12T03:46:08.106Z,12.27
2022-10-12T03:48:34.849Z,26.15
2022-10-12T03:51:01.536Z,12.20
2022-10-12T03:53:28.266Z,20.48
2022-10-12T03:55:56.106Z,16.67
2022-10-12T03:58:22.868Z,21.13
2022-10-12T04:00:54.805Z,16.80
2022-10-12T04:03:21.818Z,17.55
2022-10-12T04:05:58.842Z,16.52
2022-10-12T04:08:26.998Z,16.92
2022-10-12T04:10:53.773Z,17.17
2022-10-12T04:13:20.715Z,15.02
2022-10-12T04:15:47.479Z,16.02
2022-10-12T04:18:14.244Z,23.52
2022-10-12T04:20:40.901Z,25.55
2022-10-12T04:23:07.662Z,24.63
2022-10-12T04:25:34.483Z,32.22
2022-10-12T04:28:01.119Z,22.67
2022-10-12T04:30:27.822Z,34.03
2022-10-12T04:32:54.456Z,23.38
2022-10-12T04:35:21.190Z,22.17
2022-10-12T04:37:48.005Z,29.95
2022-10-12T04:40:14.730Z,25.90
2022-10-12T04:42:41.425Z,28.73
2022-10-12T04:45:08.715Z,25.05
2022-10-12T04:47:35.953Z,27.17
2022-10-12T04:50:03.272Z,20.90
2022-10-12T04:52:29.940Z,24.50
2022-10-12T04:54:56.660Z,20.60
2022-10-12T04:57:23.327Z,14.27
2022-10-12T04:59:49.973Z,17.92
2022-10-12T05:02:16.727Z,19.00
2022-10-12T05:04:43.423Z,18.45
2022-10-12T05:07:10.077Z,16.60
2022-10-12T05:09:36.715Z,25.67
2022-10-12T05:12:03.379Z,15.95
2022-10-12T05:14:35.121Z,16.83
2022-10-12T05:17:02.713Z,13.02
2022-10-12T05:19:29.368Z,18.70
2022-10-12T05:21:56.054Z,9.75
2022-10-12T05:24:23.119Z,16.98
2022-10-12T05:26:49.856Z,15.40
2022-10-12T05:29:16.528Z,32.38
2022-10-12T05:31:43.169Z,19.30
2022-10-12T05:34:09.950Z,34.05
2022-10-12T05:36:36.604Z,16.58
2022-10-12T05:39:03.644Z,21.02
2022-10-12T05:41:31.731Z,19.52
2022-10-12T05:43:58.396Z,20.98
2022-10-12T05:46:25.129Z,23.80
2022-10-12T05:48:51.797Z,18.95
2022-10-12T05:51:18.503Z,25.25
2022-10-12T05:53:45.119Z,19.15
2022-10-12T05:56:11.753Z,21.83
2022-10-12T05:58:38.426Z,25.10
2022-10-12T06:01:07.215Z,32.22
2022-10-12T06:03:35.104Z,25.65
2022-10-12T06:06:03.079Z,29.98
2022-10-12T06:08:31.772Z,25.85
2022-10-12T06:10:58.579Z,26.05
2022-10-12T06:13:25.691Z,31.52
2022-10-12T06:15:52.689Z,30.38
2022-10-12T06:18:19.534Z,27.13
2022-10-12T06:20:56.512Z,25.92
2022-10-12T06:23:35.739Z,56.30
2022-10-12T06:26:02.551Z,52.67
2022-10-12T06:28:29.366Z,64.28
2022-10-12T06:30:57.972Z,46.03
2022-10-12T06:33:24.818Z,48.13
2022-10-12T06:35:51.635Z,51.95
2022-10-12T06:38:18.543Z,51.50
2022-10-12T06:40:45.242Z,54.45
2022-10-12T06:43:12.075Z,44.80
2022-10-12T06:45:38.757Z,31.08
2022-10-12T06:48:05.733Z,11.77
2022-10-12T06:50:32.453Z,13.75
2022-10-12T06:52:59.205Z,12.00
2022-10-12T06:55:25.871Z,15.35
2022-10-12T06:57:52.490Z,11.98
2022-10-12T07:00:19.139Z,9.93
2022-10-12T07:02:45.833Z,9.00
2022-10-12T07:05:12.503Z,8.73
2022-10-12T07:07:39.171Z,8.90
2022-10-12T07:10:07.012Z,10.65
2022-10-12T07:12:36.081Z,12.15
2022-10-12T07:15:04.305Z,15.52
2022-10-12T07:17:30.946Z,7.47
2022-10-12T07:19:57.646Z,16.65
2022-10-12T07:22:24.371Z,12.35
2022-10-12T07:24:51.029Z,9.23
2022-10-12T07:27:17.712Z,8.80
2022-10-12T07:29:44.380Z,14.23
2022-10-12T07:32:11.025Z,12.35
2022-10-12T07:34:37.688Z,11.90
2022-10-12T07:37:04.516Z,13.25
2022-10-12T07:39:31.210Z,7.22
2022-10-12T07:41:57.853Z,8.65
2022-10-12T07:44:24.648Z,13.55
2022-10-12T07:46:51.828Z,8.02
2022-10-12T07:49:18.961Z,8.57
2022-10-12T07:51:46.508Z,9.43
2022-10-12T07:54:18.981Z,12.93
2022-10-12T07:56:47.146Z,7.90
2022-10-12T07:59:13.815Z,7.43
2022-10-12T08:01:40.578Z,10.00
2022-10-12T08:04:07.291Z,15.38
2022-10-12T08:06:34.221Z,8.73
2022-10-12T08:09:01.634Z,8.93
2022-10-12T08:11:28.778Z,8.00
2022-10-12T08:13:56.285Z,9.50
2022-10-12T08:16:23.246Z,8.32
2022-10-12T08:18:49.954Z,9.15
2022-10-12T08:21:17.529Z,13.20
2022-10-12T08:23:45.246Z,10.23
2022-10-12T08:26:12.889Z,12.60
2022-10-12T08:28:39.631Z,10.45
2022-10-12T08:31:14.344Z,14.30
2022-10-12T08:33:41.228Z,7.82
2022-10-12T08:36:08.546Z,7.40
2022-10-12T08:38:39.006Z,6.18
2022-10-12T08:41:30.553Z,9.15
2022-10-12T08:44:05.888Z,8.13
2022-10-12T08:46:32.805Z,9.20
2022-10-12T08:49:05.353Z,9.02
2022-10-12T08:51:33.883Z,7.05
2022-10-12T08:54:05.782Z,9.60
2022-10-12T08:56:34.840Z,8.63
2022-10-12T08:59:02.291Z,6.82
2022-10-12T09:01:32.293Z,15.15
2022-10-12T09:04:14.180Z,7.57
2022-10-12T09:06:46.617Z,11.63
2022-10-12T09:09:41.525Z,12.60
2022-10-12T09:12:27.562Z,6.30
2022-10-12T09:15:00.481Z,8.45
2022-10-12T09:17:31.906Z,9.43
2022-10-12T09:20:32.038Z,10.07
2022-10-12T09:23:21.288Z,7.32
2022-10-12T09:25:48.056Z,9.95
2022-10-12T09:28:20.740Z,12.88
2022-10-12T09:31:01.329Z,7.45
2022-10-12T09:33:31.901Z,7.32
2022-10-12T09:35:58.525Z,6.72
2022-10-12T09:38:25.199Z,9.10
2022-10-12T09:40:51.913Z,10.30
2022-10-12T09:43:18.569Z,11.75
2022-10-12T09:45:45.569Z,7.95
2022-10-12T09:48:19.365Z,15.38
2022-10-12T09:50:50.646Z,11.57
2022-10-12T09:53:31.860Z,9.88
2022-10-12T09:58:58.025Z,10.60
2022-10-12T10:01:24.762Z,18.13
2022-10-12T10:04:17.866Z,9.15
2022-10-12T10:06:46.367Z,10.30
2022-10-12T10:09:30.998Z,9.48
2022-10-12T10:11:58.835Z,7.47
2022-10-12T10:14:25.507Z,10.35
2022-10-12T10:16:54.655Z,7.10
2022-10-12T10:19:25.093Z,7.93
2022-10-12T10:21:55.713Z,9.65
2022-10-12T10:24:29.782Z,10.63
2022-10-12T10:27:05.224Z,12.45
2022-10-12T10:29:40.642Z,11.13
2022-10-12T10:32:12.674Z,8.07
2022-10-12T10:34:41.694Z,8.73
2022-10-12T10:37:15.988Z,7.53
2022-10-12T10:39:48.414Z,6.50
2022-10-12T10:42:21.010Z,6.63
2022-10-12T10:44:52.937Z,9.02
2022-10-12T10:47:19.648Z,8.73
2022-10-12T10:50:00.719Z,9.43
2022-10-12T10:52:33.008Z,8.70
2022-10-12T10:55:08.534Z,6.72
2022-10-12T10:57:35.937Z,7.70
2022-10-12T11:00:33.725Z,7.93
2022-10-12T11:02:58.991Z,6.38
2022-10-12T11:05:31.306Z,7.82
2022-10-12T11:07:59.621Z,9.32
2022-10-12T11:10:30.968Z,6.38
2022-10-12T11:13:02.654Z,8.77
2022-10-12T11:16:00.172Z,6.10
2022-10-12T11:18:46.809Z,9.60
2022-10-12T11:21:20.360Z,10.27
2022-10-12T11:24:04.654Z,8.30
2022-10-12T11:27:01.421Z,6.60
2022-10-12T11:29:28.284Z,4.65
2022-10-12T11:32:03.741Z,7.55
2022-10-12T11:34:43.169Z,6.20
2022-10-12T11:37:20.545Z,8.57
2022-10-12T11:39:51.329Z,5.85
2022-10-12T11:42:43.621Z,11.18
2022-10-12T11:45:30.008Z,8.45
2022-10-12T11:48:01.394Z,6.85
2022-10-12T11:50:35.724Z,7.05
2022-10-12T11:53:06.375Z,8.13
2022-10-12T11:55:35.825Z,6.68
2022-10-12T11:58:13.221Z,8.30
2022-10-12T12:01:13.853Z,7.72
2022-10-12T12:03:43.668Z,8.05
2022-10-12T12:06:29.038Z,8.73
2022-10-12T12:08:55.770Z,8.73
2022-10-12T12:11:28.059Z,6.95
2022-10-12T12:14:25.873Z,7.13
2022-10-12T12:17:15.801Z,8.40
2022-10-12T12:19:43.652Z,7.95
2022-10-12T12:22:21.549Z,8.73
2022-10-12T12:25:11.542Z,10.73
2022-10-12T12:27:38.142Z,11.50
2022-10-12T12:30:27.403Z,7.38
2022-10-12T12:32:57.188Z,6.93
2022-10-12T12:35:25.713Z,9.55
2022-10-12T12:38:14.138Z,7.65
2022-10-12T12:40:41.655Z,6.60
2022-10-12T12:43:29.302Z,6.22
2022-10-12T12:46:00.254Z,8.65
2022-10-12T12:48:39.275Z,9.07
2022-10-12T12:51:14.982Z,7.93
2022-10-12T12:53:53.603Z,10.20
2022-10-12T12:56:28.922Z,11.98
2022-10-12T12:59:08.611Z,5.90
2022-10-12T13:01:50.685Z,6.25
2022-10-12T13:04:32.713Z,6.20
2022-10-12T13:07:02.434Z,13.32
2022-10-12T13:09:29.020Z,7.72
2022-10-12T13:12:35.739Z,7.03
2022-10-12T13:15:16.471Z,9.32
2022-10-12T13:17:52.229Z,6.50
2022-10-12T13:20:21.613Z,9.85
2022-10-12T13:22:50.529Z,6.18
2022-10-12T13:25:43.526Z,5.53
2022-10-12T13:28:17.053Z,7.88
2022-10-12T13:30:54.101Z,8.38
2022-10-12T13:33:54.300Z,7.60
2022-10-12T13:36:26.754Z,10.40
2022-10-12T13:39:07.067Z,8.73
2022-10-12T13:41:34.688Z,10.63
2022-10-12T13:44:04.482Z,7.90
2022-10-12T13:46:48.082Z,6.50
2022-10-12T13:49:27.202Z,8.50
2022-10-12T13:51:56.469Z,6.50
2022-10-12T13:54:24.793Z,8.60
2022-10-12T13:59:37.874Z,11.38
2022-10-12T14:02:17.528Z,7.35
2022-10-12T14:04:44.649Z,9.35
2022-10-12T14:07:40.678Z,6.85
2022-10-12T14:10:27.004Z,10.55
2022-10-12T14:12:53.975Z,6.40
2022-10-12T14:15:21.899Z,9.63
2022-10-12T14:17:50.922Z,9.48
2022-10-12T14:23:16.611Z,8.73
2022-10-12T14:25:54.385Z,9.40
2022-10-12T14:28:27.103Z,9.93
2022-10-12T14:30:54.100Z,6.70
2022-10-12T14:33:25.618Z,13.10
2022-10-12T14:35:52.812Z,8.02
2022-10-12T14:38:44.890Z,10.27
2022-10-12T14:41:30.132Z,8.65
2022-10-12T14:44:15.980Z,8.18
2022-10-12T14:46:52.883Z,8.52
2022-10-12T14:49:27.376Z,14.40
2022-10-12T14:51:56.861Z,11.32
2022-10-12T14:54:23.668Z,7.75
2022-10-12T14:56:50.369Z,11.70
2022-10-12T14:59:17.163Z,9.48
2022-10-12T15:01:47.480Z,9.20
2022-10-12T15:04:17.775Z,9.27
2022-10-12T15:06:48.398Z,13.10
2022-10-12T15:09:17.564Z,20.83
2022-10-12T15:11:44.213Z,10.77
2022-10-12T15:14:11.588Z,10.52
2022-10-12T15:16:39.149Z,15.10
2022-10-12T15:19:05.804Z,11.70
2022-10-12T15:21:32.416Z,9.10
2022-10-12T15:23:59.047Z,13.68
2022-10-12T15:26:26.653Z,22.23
2022-10-12T15:28:53.479Z,17.42
2022-10-12T15:31:20.343Z,15.73
2022-10-12T15:33:47.343Z,12.68
2022-10-12T15:36:14.099Z,16.55
2022-10-12T15:38:40.813Z,13.35
2022-10-12T15:41:16.564Z,14.18
2022-10-12T15:43:43.262Z,13.82
2022-10-12T15:46:11.534Z,10.95
2022-10-12T15:48:40.266Z,13.77
2022-10-12T15:51:13.110Z,23.55
2022-10-12T15:53:39.758Z,22.38
2022-10-12T15:56:12.353Z,17.90
2022-10-12T15:58:38.972Z,9.98
2022-10-12T16:01:05.893Z,21.90
2022-10-12T16:03:32.909Z,16.10
2022-10-12T16:05:59.574Z,18.83
2022-10-12T16:08:26.290Z,13.05
2022-10-12T16:10:53.009Z,16.95
2022-10-12T16:13:19.756Z,20.90
2022-10-12T16:15:46.492Z,29.35
2022-10-12T16:18:15.549Z,14.02
2022-10-12T16:23:17.608Z,15.57
2022-10-12T16:25:44.348Z,15.75
2022-10-12T16:28:11.643Z,16.67
2022-10-12T16:30:40.367Z,12.70
2022-10-12T16:33:07.051Z,17.50
2022-10-12T16:35:33.985Z,18.80
2022-10-12T16:38:01.067Z,17.00
2022-10-12T16:40:27.689Z,14.93
2022-10-12T16:42:54.516Z,17.42
2022-10-12T16:45:22.371Z,22.92
2022-10-12T16:47:51.878Z,24.23
2022-10-12T16:50:19.649Z,10.68
2022-10-12T16:52:46.333Z,22.27
2022-10-12T16:55:13.165Z,16.10
2022-10-12T16:57:40.359Z,13.75
2022-10-12T17:00:10.548Z,17.45
2022-10-12T17:02:37.610Z,21.30
2022-10-12T17:05:05.224Z,21.15
2022-10-12T17:07:31.865Z,14.30
2022-10-12T17:09:59.859Z,13.07
2022-10-12T17:12:26.935Z,13.15
2022-10-12T17:14:54.156Z,21.95
2022-10-12T17:17:21.302Z,19.35
2022-10-12T17:19:48.050Z,9.82
2022-10-12T17:22:14.989Z,11.18
2022-10-12T17:24:42.478Z,13.90
2022-10-12T17:27:12.075Z,31.17
2022-10-12T17:29:42.095Z,16.67
2022-10-12T17:32:10.359Z,16.55
2022-10-12T17:34:42.636Z,17.77
2022-10-12T17:37:13.476Z,10.65
2022-10-12T17:39:46.205Z,18.30
2022-10-12T17:42:13.461Z,18.42
2022-10-12T17:44:40.484Z,14.55
2022-10-12T17:47:07.215Z,9.43
2022-10-12T17:49:33.937Z,13.75
2022-10-12T17:52:00.585Z,22.67
2022-10-12T17:54:27.369Z,11.82
2022-10-12T17:56:57.311Z,13.27
2022-10-12T17:59:24.085Z,15.40
2022-10-12T18:01:51.356Z,15.77
2022-10-12T18:04:18.345Z,12.88
2022-10-12T18:06:45.879Z,13.75
2022-10-12T18:09:12.848Z,15.13
2022-10-12T18:11:39.574Z,13.35
2022-10-12T18:14:09.314Z,10.25
2022-10-12T18:16:37.275Z,9.35
2022-10-12T18:19:05.278Z,11.00
2022-10-12T18:21:33.369Z,9.63
2022-10-12T18:24:06.889Z,14.23
2022-10-12T18:26:33.893Z,21.77
2022-10-12T18:29:01.803Z,12.45
2022-10-12T18:31:30.001Z,14.75
2022-10-12T18:33:57.861Z,12.63
2022-10-12T18:36:25.375Z,13.10
2022-10-12T18:38:52.816Z,12.02
2022-10-12T18:41:22.546Z,10.50
2022-10-12T18:43:55.008Z,14.15
2022-10-12T18:46:21.705Z,23.35
2022-10-12T18:48:48.439Z,14.63
2022-10-12T18:51:20.452Z,14.93
2022-10-12T18:53:47.502Z,22.23
2022-10-12T18:56:14.299Z,16.42
2022-10-12T18:58:42.040Z,8.10
2022-10-12T19:01:14.536Z,12.38
2022-10-12T19:03:41.450Z,13.13
2022-10-12T19:06:13.765Z,9.75
2022-10-12T19:08:40.669Z,7.88
2022-10-12T19:11:08.564Z,11.23
2022-10-12T19:13:36.483Z,9.07
2022-10-12T19:16:14.102Z,14.05
2022-10-12T19:18:41.255Z,10.30
2022-10-12T19:21:10.612Z,9.10
2022-10-12T19:23:37.340Z,7.10
2022-10-12T19:26:08.171Z,12.48
2022-10-12T19:28:35.577Z,13.80
2022-10-12T19:31:07.604Z,9.88
2022-10-12T19:33:34.262Z,7.15
2022-10-12T19:36:03.791Z,11.32
2022-10-12T19:38:30.481Z,8.52
2022-10-12T19:40:57.184Z,10.15
2022-10-12T19:43:23.837Z,9.43
2022-10-12T19:45:51.016Z,17.45
2022-10-12T19:48:17.905Z,14.75
2022-10-12T19:50:44.872Z,12.55
2022-10-12T19:53:11.588Z,13.10
2022-10-12T19:55:40.943Z,19.20
2022-10-12T19:58:07.836Z,13.55
2022-10-12T20:00:36.102Z,9.48
2022-10-12T20:03:05.265Z,8.07
2022-10-12T20:07:58.539Z,9.45
2022-10-12T20:10:25.246Z,11.27
2022-10-12T20:12:51.861Z,9.13
2022-10-12T20:15:18.501Z,9.18
2022-10-12T20:17:45.125Z,14.23
2022-10-12T20:20:11.955Z,11.38
2022-10-12T20:22:38.574Z,7.63
2022-10-12T20:25:09.294Z,10.63
2022-10-12T20:27:36.711Z,8.85
2022-10-12T20:30:04.942Z,7.20
2022-10-12T20:32:31.683Z,9.02
2022-10-12T20:34:58.366Z,10.48
2022-10-12T20:37:25.261Z,7.70
2022-10-12T20:39:52.749Z,9.15
2022-10-12T20:42:21.966Z,10.95
2022-10-12T20:44:49.390Z,10.70
2022-10-12T20:47:16.541Z,7.30
2022-10-12T20:49:43.895Z,13.93
2022-10-12T20:52:11.167Z,8.40
2022-10-12T20:54:37.932Z,11.18
2022-10-12T20:57:05.160Z,10.57
2022-10-12T20:59:34.533Z,10.85
2022-10-12T21:02:01.290Z,8.93
2022-10-12T21:04:31.073Z,11.50
2022-10-12T21:06:59.267Z,9.85
2022-10-12T21:09:26.006Z,9.55
2022-10-12T21:11:52.698Z,14.07
2022-10-12T21:14:19.426Z,6.40
2022-10-12T21:16:46.149Z,8.07
2022-10-12T21:19:16.442Z,8.52
2022-10-12T21:21:43.624Z,7.82
2022-10-12T21:24:10.671Z,8.93
2022-10-12T21:26:37.453Z,10.50
2022-10-12T21:29:04.350Z,9.57
2022-10-12T21:31:32.807Z,7.85
2022-10-12T21:34:01.460Z,7.53
2022-10-12T21:36:29.405Z,11.35
2022-10-12T21:38:56.489Z,7.53
2022-10-12T21:41:25.989Z,10.10
2022-10-12T21:43:53.369Z,7.88
2022-10-12T21:46:22.605Z,8.23
2022-10-12T21:48:49.777Z,15.07
2022-10-12T21:51:17.327Z,7.50
2022-10-12T21:53:43.999Z,8.48
2022-10-12T21:56:20.996Z,7.03
2022-10-12T21:58:48.671Z,9.35
2022-10-12T22:01:17.304Z,10.07
2022-10-12T22:03:44.768Z,9.77
2022-10-12T22:06:16.813Z,8.07
2022-10-12T22:08:44.347Z,9.00
2022-10-12T22:11:12.763Z,7.60
2022-10-12T22:13:39.449Z,8.13
2022-10-12T22:16:08.531Z,6.60
2022-10-12T22:21:09.653Z,6.40
2022-10-12T22:23:36.575Z,8.18
2022-10-12T22:26:06.549Z,6.90
2022-10-12T22:28:33.736Z,7.25
2022-10-12T22:31:00.505Z,12.43
2022-10-12T22:33:27.365Z,10.52
2022-10-12T22:35:59.076Z,12.05
2022-10-12T22:38:25.935Z,21.45
2022-10-12T22:41:04.839Z,13.68
2022-10-12T22:43:32.255Z,11.07
2022-10-12T22:45:59.314Z,17.30
2022-10-12T22:48:26.664Z,10.88
2022-10-12T22:50:54.164Z,14.38
2022-10-12T22:53:22.057Z,11.30
2022-10-12T22:55:49.031Z,13.30
2022-10-12T22:58:15.867Z,11.07
2022-10-12T23:00:42.654Z,12.40
2022-10-12T23:03:09.375Z,9.93
2022-10-12T23:05:36.057Z,12.65
2022-10-12T23:08:02.676Z,11.60
2022-10-12T23:10:29.301Z,11.07
2022-10-12T23:12:55.963Z,12.30
2022-10-12T23:15:22.697Z,11.63
2022-10-12T23:17:49.324Z,11.88
2022-10-12T23:20:16.057Z,10.35
2022-10-12T23:22:42.723Z,11.25
2022-10-12T23:25:09.425Z,11.15
2022-10-12T23:27:36.066Z,11.43
2022-10-12T23:30:02.896Z,11.55
2022-10-12T23:32:30.457Z,8.55
2022-10-12T23:34:57.181Z,9.93
2022-10-12T23:37:23.833Z,10.30
2022-10-12T23:39:50.486Z,12.35
2022-10-12T23:42:17.429Z,9.32
2022-10-12T23:44:44.268Z,12.38
2022-10-12T23:47:10.927Z,7.75
2022-10-12T23:49:37.797Z,10.65
2022-10-12T23:52:04.547Z,9.38
2022-10-12T23:54:31.290Z,15.75
2022-10-12T23:56:57.992Z,7.57
2022-10-12T23:59:24.633Z,9.30
